createdAt,value
2023-01-27T00:01:26.661Z,82.11
2023-01-27T00:04:29.581Z,82.13
2023-01-27T00:07:32.368Z,82.36
2023-01-27T00:10:35.092Z,82.32
2023-01-27T00:13:38.203Z,82.21
2023-01-27T00:16:40.957Z,82.17
2023-01-27T00:19:44.628Z,82.38
2023-01-27T00:23:05.035Z,82.41
2023-01-27T00:26:10.426Z,82.29
2023-01-27T00:29:14.464Z,82.38
2023-01-27T00:32:34.496Z,82.51
2023-01-27T00:35:37.236Z,82.30
2023-01-27T00:38:41.878Z,82.51
2023-01-27T00:41:44.740Z,82.38
2023-01-27T00:45:02.743Z,82.35
2023-01-27T00:48:06.126Z,82.52
2023-01-27T00:51:08.980Z,82.68
2023-01-27T00:54:11.979Z,82.38
2023-01-27T00:57:14.823Z,82.64
2023-01-27T01:00:19.450Z,82.39
2023-01-27T01:03:22.640Z,82.50
2023-01-27T01:06:25.852Z,82.43
2023-01-27T01:09:28.933Z,82.50
2023-01-27T01:12:31.752Z,82.62
2023-01-27T01:15:37.817Z,82.35
2023-01-27T01:18:40.608Z,82.45
2023-01-27T01:21:43.383Z,82.69
2023-01-27T01:24:46.069Z,82.47
2023-01-27T01:27:48.783Z,82.71
2023-01-27T01:30:53.126Z,82.61
2023-01-27T01:33:55.809Z,82.46
2023-01-27T01:36:58.497Z,82.66
2023-01-27T01:40:02.019Z,82.53
2023-01-27T01:43:05.537Z,82.42
2023-01-27T01:46:12.163Z,82.45
2023-01-27T01:49:17.099Z,82.29
2023-01-27T01:52:22.900Z,82.23
2023-01-27T01:55:25.892Z,82.00
2023-01-27T01:58:29.121Z,82.27
2023-01-27T02:01:33.519Z,82.39
2023-01-27T02:04:43.568Z,82.39
2023-01-27T02:07:54.445Z,82.46
2023-01-27T02:10:57.940Z,82.27
2023-01-27T02:14:02.396Z,82.10
2023-01-27T02:17:06.973Z,82.22
2023-01-27T02:20:18.135Z,81.82
2023-01-27T02:23:44.160Z,81.85
2023-01-27T02:26:48.325Z,82.19
2023-01-27T02:29:51.017Z,82.21
2023-01-27T02:32:53.828Z,82.00
2023-01-27T02:36:02.118Z,81.94
2023-01-27T02:39:09.307Z,82.15
2023-01-27T02:42:16.492Z,82.54
2023-01-27T02:45:19.221Z,82.54
2023-01-27T02:48:21.883Z,82.27
2023-01-27T02:51:24.980Z,82.71
2023-01-27T02:54:29.332Z,82.78
2023-01-27T02:57:33.746Z,82.74
2023-01-27T03:00:36.645Z,82.74
2023-01-27T03:03:43.961Z,82.71
2023-01-27T03:06:46.784Z,82.73
2023-01-27T03:09:49.525Z,82.73
2023-01-27T03:12:53.681Z,82.85
2023-01-27T03:16:17.393Z,83.07
2023-01-27T03:19:20.428Z,82.88
2023-01-27T03:22:23.170Z,83.31
2023-01-27T03:25:25.902Z,83.33
2023-01-27T03:28:30.035Z,82.89
2023-01-27T03:31:32.795Z,82.91
2023-01-27T03:34:35.685Z,82.72
2023-01-27T03:37:55.971Z,82.71
2023-01-27T03:41:16.449Z,83.18
2023-01-27T03:44:38.214Z,82.85
2023-01-27T03:47:40.958Z,83.06
2023-01-27T03:50:44.165Z,83.38
2023-01-27T03:53:47.531Z,83.29
2023-01-27T03:56:50.387Z,82.82
2023-01-27T03:59:54.905Z,82.31
2023-01-27T04:03:15.033Z,82.51
2023-01-27T04:06:38.916Z,83.11
2023-01-27T04:09:41.577Z,82.76
2023-01-27T04:12:44.276Z,82.92
2023-01-27T04:15:48.300Z,83.35
2023-01-27T04:18:50.998Z,83.23
2023-01-27T04:21:54.143Z,83.18
2023-01-27T04:24:56.837Z,83.45
2023-01-27T04:27:59.573Z,83.42
2023-01-27T04:31:03.663Z,83.71
2023-01-27T04:34:06.559Z,83.81
2023-01-27T04:37:10.323Z,83.70
2023-01-27T04:40:14.206Z,83.78
2023-01-27T04:43:16.888Z,83.78
2023-01-27T04:46:21.018Z,83.88
2023-01-27T04:49:23.844Z,83.35
2023-01-27T04:52:26.500Z,83.66
2023-01-27T04:55:29.251Z,83.56
2023-01-27T04:58:32.127Z,83.44
2023-01-27T05:01:36.172Z,83.04
2023-01-27T05:04:39.526Z,82.63
2023-01-27T05:07:42.174Z,82.70
2023-01-27T05:10:45.570Z,82.82
2023-01-27T05:13:49.065Z,82.59
2023-01-27T05:16:53.153Z,82.25
2023-01-27T05:19:55.843Z,81.96
2023-01-27T05:23:19.085Z,81.72
2023-01-27T05:26:23.403Z,82.05
2023-01-27T05:29:26.341Z,81.78
2023-01-27T05:32:30.436Z,81.51
2023-01-27T05:35:33.889Z,81.95
2023-01-27T05:38:36.816Z,81.60
2023-01-27T05:41:39.724Z,81.34
2023-01-27T05:44:42.431Z,81.59
2023-01-27T05:47:49.970Z,81.24
2023-01-27T05:50:56.603Z,81.10
2023-01-27T05:53:59.318Z,80.99
2023-01-27T05:57:02.110Z,81.35
2023-01-27T06:00:05.751Z,81.19
2023-01-27T06:03:10.029Z,80.97
2023-01-27T06:06:14.191Z,80.60
2023-01-27T06:09:16.885Z,80.69
2023-01-27T06:12:19.623Z,80.55
2023-01-27T06:15:22.343Z,81.44
2023-01-27T06:18:26.429Z,81.77
2023-01-27T06:21:29.169Z,82.17
2023-01-27T06:24:31.888Z,82.03
2023-01-27T06:27:34.652Z,82.14
2023-01-27T06:30:38.889Z,81.94
2023-01-27T06:33:43.105Z,81.78
2023-01-27T06:36:45.747Z,80.97
2023-01-27T06:39:48.411Z,80.93
2023-01-27T06:42:51.167Z,80.67
2023-01-27T06:45:54.672Z,80.36
2023-01-27T06:48:58.891Z,79.81
2023-01-27T06:52:01.586Z,80.19
2023-01-27T06:55:05.965Z,79.84
2023-01-27T06:58:09.547Z,80.20
2023-01-27T07:01:12.508Z,80.01
2023-01-27T07:04:16.597Z,79.85
2023-01-27T07:07:20.040Z,79.50
2023-01-27T07:10:22.790Z,79.52
2023-01-27T07:13:25.478Z,79.56
2023-01-27T07:16:30.081Z,79.63
2023-01-27T07:19:35.238Z,79.10
2023-01-27T07:22:38.668Z,79.44
2023-01-27T07:25:41.358Z,79.15
2023-01-27T07:28:44.060Z,79.59
2023-01-27T07:31:46.812Z,79.42
2023-01-27T07:34:50.991Z,79.32
2023-01-27T07:37:53.719Z,79.15
2023-01-27T07:40:56.606Z,78.72
2023-01-27T07:43:59.307Z,78.54
2023-01-27T07:47:02.155Z,78.28
2023-01-27T07:50:07.178Z,78.27
2023-01-27T07:53:11.964Z,78.10
2023-01-27T07:56:14.749Z,78.58
2023-01-27T07:59:17.633Z,78.82
2023-01-27T08:02:20.477Z,78.84
2023-01-27T08:05:25.339Z,77.69
2023-01-27T08:08:28.122Z,77.79
2023-01-27T08:11:32.806Z,77.54
2023-01-27T08:14:35.494Z,77.17
2023-01-27T08:17:38.247Z,76.88
2023-01-27T08:20:45.142Z,76.50
2023-01-27T08:23:51.490Z,75.74
2023-01-27T08:26:54.606Z,75.72
2023-01-27T08:29:58.591Z,75.24
2023-01-27T08:33:02.830Z,75.57
2023-01-27T08:36:10.695Z,75.79
2023-01-27T08:39:13.830Z,76.05
2023-01-27T08:42:16.576Z,75.47
2023-01-27T08:45:19.470Z,75.02
2023-01-27T08:48:22.836Z,75.35
2023-01-27T08:51:27.242Z,75.37
2023-01-27T08:54:30.012Z,74.91
2023-01-27T08:57:34.708Z,75.25
2023-01-27T09:00:39.223Z,74.60
2023-01-27T09:03:42.303Z,74.95
2023-01-27T09:06:48.365Z,74.61
2023-01-27T09:09:58.175Z,73.30
2023-01-27T09:13:06.953Z,73.59
2023-01-27T09:16:09.865Z,72.56
2023-01-27T09:19:13.480Z,71.94
2023-01-27T09:22:17.636Z,72.57
2023-01-27T09:25:20.463Z,72.87
2023-01-27T09:28:23.165Z,72.87
2023-01-27T09:31:25.927Z,72.67
2023-01-27T09:34:29.081Z,72.75
2023-01-27T09:37:35.045Z,73.18
2023-01-27T09:40:51.724Z,72.44
2023-01-27T09:44:12.108Z,72.55
2023-01-27T09:47:38.479Z,73.03
2023-01-27T09:50:45.526Z,72.52
2023-01-27T09:54:07.568Z,72.18
2023-01-27T09:57:17.294Z,72.84
2023-01-27T10:00:32.716Z,71.95
2023-01-27T10:03:59.090Z,71.39
2023-01-27T10:07:20.598Z,70.73
2023-01-27T10:10:36.131Z,70.88
2023-01-27T10:13:52.302Z,71.18
2023-01-27T10:17:18.982Z,71.65
2023-01-27T10:20:31.591Z,71.50
2023-01-27T10:23:51.094Z,72.11
2023-01-27T10:26:59.203Z,71.78
2023-01-27T10:30:09.456Z,71.81
2023-01-27T10:33:18.949Z,71.39
2023-01-27T10:36:28.349Z,71.15
2023-01-27T10:39:44.101Z,72.15
2023-01-27T10:42:55.766Z,71.94
2023-01-27T10:46:06.238Z,72.66
2023-01-27T10:49:14.738Z,71.88
2023-01-27T10:52:21.988Z,71.87
2023-01-27T10:55:29.395Z,70.94
2023-01-27T10:58:46.844Z,71.48
2023-01-27T11:01:54.252Z,70.70
2023-01-27T11:05:02.243Z,70.66
2023-01-27T11:08:09.341Z,70.37
2023-01-27T11:11:30.800Z,70.58
2023-01-27T11:14:45.728Z,70.34
2023-01-27T11:17:53.732Z,71.15
2023-01-27T11:21:01.180Z,69.94
2023-01-27T11:24:17.382Z,71.14
2023-01-27T11:27:34.116Z,71.71
2023-01-27T11:30:47.892Z,70.21
2023-01-27T11:33:58.798Z,70.21
2023-01-27T11:37:09.767Z,69.69
2023-01-27T11:40:18.855Z,69.16
2023-01-27T11:43:26.694Z,68.74
2023-01-27T11:46:32.384Z,68.91
2023-01-27T11:49:39.983Z,68.51
2023-01-27T11:52:44.130Z,68.71
2023-01-27T11:55:50.536Z,68.88
2023-01-27T11:58:58.761Z,69.00
2023-01-27T12:02:19.030Z,68.88
2023-01-27T12:05:30.143Z,67.81
2023-01-27T12:08:42.186Z,68.75
2023-01-27T12:11:44.891Z,68.59
2023-01-27T12:14:49.646Z,69.19
2023-01-27T12:17:57.638Z,69.09
2023-01-27T12:21:02.309Z,69.14
2023-01-27T12:24:07.273Z,67.58
2023-01-27T12:27:21.080Z,67.59
2023-01-27T12:30:26.991Z,67.58
2023-01-27T12:33:34.552Z,67.20
2023-01-27T12:36:40.391Z,67.49
2023-01-27T12:39:47.481Z,66.09
2023-01-27T12:42:51.870Z,67.12
2023-01-27T12:46:19.510Z,65.79
2023-01-27T12:49:23.877Z,65.29
2023-01-27T12:52:26.582Z,65.22
2023-01-27T12:55:31.626Z,64.30
2023-01-27T12:58:40.232Z,64.83
2023-01-27T13:01:44.874Z,64.96
2023-01-27T13:04:54.185Z,64.95
2023-01-27T13:07:56.995Z,65.84
2023-01-27T13:11:02.293Z,64.11
2023-01-27T13:14:09.056Z,63.48
2023-01-27T13:17:37.726Z,64.21
2023-01-27T13:20:46.376Z,64.50
2023-01-27T13:23:50.193Z,65.22
2023-01-27T13:26:53.746Z,64.42
2023-01-27T13:30:01.836Z,64.84
2023-01-27T13:33:20.741Z,64.86
2023-01-27T13:36:33.054Z,65.26
2023-01-27T13:39:55.066Z,64.67
2023-01-27T13:43:06.590Z,65.02
2023-01-27T13:46:17.423Z,64.71
2023-01-27T13:49:31.260Z,65.45
2023-01-27T13:52:38.185Z,65.77
2023-01-27T13:55:53.295Z,65.21
2023-01-27T13:59:04.951Z,65.41
2023-01-27T14:02:36.977Z,65.87
2023-01-27T14:05:50.292Z,66.18
2023-01-27T14:09:39.746Z,67.07
2023-01-27T14:12:56.764Z,66.25
2023-01-27T14:16:09.650Z,66.84
2023-01-27T14:19:26.894Z,66.07
2023-01-27T14:22:37.240Z,66.93
2023-01-27T14:25:48.106Z,66.86
2023-01-27T14:29:00.882Z,67.08
2023-01-27T14:32:11.921Z,67.47
2023-01-27T14:35:36.652Z,67.58
2023-01-27T14:38:45.360Z,68.07
2023-01-27T14:41:55.542Z,67.98
2023-01-27T14:45:06.997Z,68.39
2023-01-27T14:48:24.407Z,67.59
2023-01-27T14:51:36.477Z,67.95
2023-01-27T14:54:58.619Z,67.32
2023-01-27T14:58:18.455Z,66.69
2023-01-27T15:01:35.027Z,67.43
2023-01-27T15:04:48.440Z,68.04
2023-01-27T15:07:59.064Z,67.82
2023-01-27T15:11:15.369Z,67.90
2023-01-27T15:14:42.540Z,68.26
2023-01-27T15:17:59.879Z,68.48
2023-01-27T15:21:18.569Z,69.05
2023-01-27T15:24:51.480Z,69.28
2023-01-27T15:27:55.143Z,69.64
2023-01-27T15:31:24.167Z,69.63
2023-01-27T15:34:29.590Z,70.00
2023-01-27T15:37:32.259Z,69.83
2023-01-27T15:41:08.144Z,70.03
2023-01-27T15:44:17.023Z,70.47
2023-01-27T15:47:26.276Z,70.66
2023-01-27T15:50:32.937Z,70.81
2023-01-27T15:53:39.239Z,71.11
2023-01-27T15:56:52.187Z,71.26
2023-01-27T15:59:59.517Z,71.34
2023-01-27T16:03:24.520Z,71.44
2023-01-27T16:06:27.395Z,71.78
2023-01-27T16:09:36.370Z,71.63
2023-01-27T16:12:42.530Z,71.43
2023-01-27T16:15:45.346Z,71.55
2023-01-27T16:18:54.533Z,71.60
2023-01-27T16:22:02.195Z,71.65
2023-01-27T16:25:20.238Z,72.02
2023-01-27T16:28:28.488Z,72.05
2023-01-27T16:31:32.876Z,72.29
2023-01-27T16:34:42.487Z,72.29
2023-01-27T16:38:01.045Z,72.53
2023-01-27T16:41:16.635Z,73.04
2023-01-27T16:44:23.288Z,73.15
2023-01-27T16:47:29.044Z,73.23
2023-01-27T16:50:35.968Z,73.65
2023-01-27T16:53:38.920Z,73.87
2023-01-27T16:56:41.775Z,73.80
2023-01-27T16:59:44.494Z,73.88
2023-01-27T17:02:48.016Z,73.93
2023-01-27T17:05:53.857Z,73.96
2023-01-27T17:08:56.739Z,74.08
2023-01-27T17:12:00.098Z,73.92
2023-01-27T17:15:18.551Z,74.19
2023-01-27T17:18:21.702Z,74.25
2023-01-27T17:21:35.853Z,74.16
2023-01-27T17:24:42.153Z,74.62
2023-01-27T17:27:46.128Z,74.59
2023-01-27T17:30:50.688Z,74.71
2023-01-27T17:34:02.318Z,74.59
2023-01-27T17:37:16.380Z,75.21
2023-01-27T17:40:22.061Z,75.51
2023-01-27T17:43:29.118Z,75.62
2023-01-27T17:46:35.008Z,75.77
2023-01-27T17:49:40.680Z,76.23
2023-01-27T17:52:52.485Z,76.02
2023-01-27T17:55:56.800Z,76.30
2023-01-27T17:59:03.325Z,75.94
2023-01-27T18:02:14.715Z,75.57
2023-01-27T18:05:25.017Z,75.76
2023-01-27T18:08:34.775Z,76.19
2023-01-27T18:11:39.013Z,76.45
2023-01-27T18:14:41.787Z,76.50
2023-01-27T18:17:44.857Z,76.80
2023-01-27T18:20:53.670Z,76.62
2023-01-27T18:24:00.127Z,76.72
2023-01-27T18:27:03.791Z,76.92
2023-01-27T18:30:13.049Z,77.11
2023-01-27T18:33:16.847Z,77.22
2023-01-27T18:36:22.504Z,77.08
2023-01-27T18:39:38.064Z,77.54
2023-01-27T18:42:40.758Z,77.58
2023-01-27T18:45:44.906Z,77.86
2023-01-27T18:48:48.504Z,77.60
2023-01-27T18:51:51.542Z,77.79
2023-01-27T18:54:59.783Z,77.99
2023-01-27T18:58:02.575Z,77.99
2023-01-27T19:01:07.968Z,78.12
2023-01-27T19:04:12.925Z,78.13
2023-01-27T19:07:17.442Z,78.07
2023-01-27T19:10:24.945Z,78.19
2023-01-27T19:13:27.690Z,78.25
2023-01-27T19:16:33.523Z,78.42
2023-01-27T19:19:37.480Z,78.55
2023-01-27T19:22:40.159Z,78.66
2023-01-27T19:25:46.964Z,78.50
2023-01-27T19:28:52.775Z,78.63
2023-01-27T19:31:55.659Z,78.54
2023-01-27T19:34:58.353Z,78.59
2023-01-27T19:38:03.858Z,78.45
2023-01-27T19:41:10.615Z,78.21
2023-01-27T19:44:13.960Z,78.32
2023-01-27T19:47:16.645Z,78.45
2023-01-27T19:50:22.685Z,78.37
2023-01-27T19:53:25.404Z,78.59
2023-01-27T19:56:32.937Z,78.71
2023-01-27T19:59:35.698Z,78.22
2023-01-27T20:02:39.435Z,78.60
2023-01-27T20:05:42.136Z,78.62
2023-01-27T20:08:45.409Z,78.91
2023-01-27T20:11:49.495Z,78.95
2023-01-27T20:14:52.344Z,79.21
2023-01-27T20:17:56.150Z,79.36
2023-01-27T20:20:58.877Z,79.21
2023-01-27T20:24:02.588Z,79.36
2023-01-27T20:27:06.783Z,79.31
2023-01-27T20:30:15.098Z,79.53
2023-01-27T20:33:17.926Z,79.44
2023-01-27T20:36:22.471Z,79.90
2023-01-27T20:39:25.186Z,80.24
2023-01-27T20:42:30.254Z,80.20
2023-01-27T20:45:33.648Z,80.08
2023-01-27T20:48:36.547Z,79.99
2023-01-27T20:51:39.293Z,80.13
2023-01-27T20:54:42.165Z,80.11
2023-01-27T20:57:46.797Z,80.27
2023-01-27T21:00:49.778Z,80.04
2023-01-27T21:03:52.661Z,80.09
2023-01-27T21:06:55.458Z,80.29
2023-01-27T21:09:59.089Z,80.57
2023-01-27T21:13:03.209Z,80.20
2023-01-27T21:16:06.683Z,80.18
2023-01-27T21:19:09.683Z,80.25
2023-01-27T21:22:12.508Z,79.88
2023-01-27T21:25:15.630Z,80.05
2023-01-27T21:28:20.388Z,80.08
2023-01-27T21:31:27.783Z,80.25
2023-01-27T21:34:30.837Z,80.04
2023-01-27T21:37:35.956Z,80.02
2023-01-27T21:40:40.146Z,80.32
2023-01-27T21:44:02.451Z,80.54
2023-01-27T21:47:06.353Z,80.75
2023-01-27T21:50:11.529Z,80.97
2023-01-27T21:53:14.202Z,80.86
2023-01-27T21:56:16.895Z,80.97
2023-01-27T21:59:20.932Z,81.08
2023-01-27T22:02:24.859Z,80.94
2023-01-27T22:05:29.179Z,81.16
2023-01-27T22:08:31.957Z,80.75
2023-01-27T22:11:34.673Z,80.89
2023-01-27T22:14:38.910Z,80.46
2023-01-27T22:17:42.164Z,80.19
2023-01-27T22:20:44.965Z,80.12
2023-01-27T22:23:47.974Z,80.13
2023-01-27T22:26:50.712Z,79.75
2023-01-27T22:29:54.788Z,79.66
2023-01-27T22:32:58.656Z,79.12
2023-01-27T22:36:02.283Z,79.11
2023-01-27T22:39:05.641Z,78.78
2023-01-27T22:42:08.320Z,79.20
2023-01-27T22:45:13.401Z,79.02
2023-01-27T22:48:16.201Z,79.15
2023-01-27T22:51:19.158Z,78.95
2023-01-27T22:54:22.062Z,79.08
2023-01-27T22:57:30.089Z,79.15
2023-01-27T23:00:34.176Z,79.17
2023-01-27T23:03:37.156Z,79.17
2023-01-27T23:06:39.836Z,78.91
2023-01-27T23:09:42.569Z,79.04
2023-01-27T23:12:45.406Z,79.14
2023-01-27T23:15:49.472Z,79.06
2023-01-27T23:18:52.364Z,79.41
2023-01-27T23:21:55.119Z,79.11
2023-01-27T23:24:57.873Z,79.23
2023-01-27T23:28:00.758Z,79.05
2023-01-27T23:31:05.497Z,79.25
2023-01-27T23:34:08.188Z,79.24
2023-01-27T23:37:10.882Z,79.28
2023-01-27T23:40:14.116Z,79.19
2023-01-27T23:43:16.790Z,78.92
2023-01-27T23:46:20.886Z,79.02
2023-01-27T23:49:23.596Z,78.99
2023-01-27T23:52:26.516Z,79.14
2023-01-27T23:55:29.351Z,79.04
2023-01-27T23:58:32.125Z,79.01
